sensor_id;sensor_type;location;lat;lon;timestamp;P1;durP1;ratioP1;P2;durP2;ratioP2
9388;SDS011;4734;52.778;6.798;2023-07-09T00:02:01;6.88;;;6.00;;
9388;SDS011;4734;52.778;6.798;2023-07-09T00:04:47;7.82;;;5.38;;
9388;SDS011;4734;52.778;6.798;2023-07-09T00:07:33;6.75;;;5.47;;
9388;SDS011;4734;52.778;6.798;2023-07-09T00:10:20;6.50;;;5.50;;
9388;SDS011;4734;52.778;6.798;2023-07-09T00:13:05;7.75;;;5.40;;
9388;SDS011;4734;52.778;6.798;2023-07-09T00:15:54;6.70;;;5.93;;
9388;SDS011;4734;52.778;6.798;2023-07-09T00:18:42;8.82;;;6.28;;
9388;SDS011;4734;52.778;6.798;2023-07-09T00:21:28;6.43;;;5.72;;
9388;SDS011;4734;52.778;6.798;2023-07-09T00:24:17;6.97;;;5.30;;
9388;SDS011;4734;52.778;6.798;2023-07-09T00:27:04;7.90;;;5.90;;
9388;SDS011;4734;52.778;6.798;2023-07-09T00:29:53;6.72;;;5.97;;
9388;SDS011;4734;52.778;6.798;2023-07-09T00:32:40;7.05;;;6.05;;
9388;SDS011;4734;52.778;6.798;2023-07-09T00:35:27;6.07;;;5.50;;
9388;SDS011;4734;52.778;6.798;2023-07-09T00:38:13;7.68;;;6.15;;
9388;SDS011;4734;52.778;6.798;2023-07-09T00:41:01;8.25;;;6.07;;
9388;SDS011;4734;52.778;6.798;2023-07-09T00:43:50;7.40;;;5.75;;
9388;SDS011;4734;52.778;6.798;2023-07-09T00:50:06;8.15;;;6.13;;
9388;SDS011;4734;52.778;6.798;2023-07-09T00:52:55;6.20;;;5.70;;
9388;SDS011;4734;52.778;6.798;2023-07-09T00:55:47;6.35;;;5.63;;
9388;SDS011;4734;52.778;6.798;2023-07-09T00:58:37;6.70;;;5.97;;
9388;SDS011;4734;52.778;6.798;2023-07-09T01:01:24;7.43;;;5.70;;
9388;SDS011;4734;52.778;6.798;2023-07-09T01:04:10;6.60;;;6.00;;
9388;SDS011;4734;52.778;6.798;2023-07-09T01:06:58;9.30;;;5.63;;
9388;SDS011;4734;52.778;6.798;2023-07-09T01:09:44;6.45;;;5.85;;
9388;SDS011;4734;52.778;6.798;2023-07-09T01:12:30;7.45;;;5.60;;
9388;SDS011;4734;52.778;6.798;2023-07-09T01:15:15;6.57;;;5.88;;
9388;SDS011;4734;52.778;6.798;2023-07-09T01:18:01;7.95;;;6.35;;
9388;SDS011;4734;52.778;6.798;2023-07-09T01:20:46;7.10;;;6.50;;
9388;SDS011;4734;52.778;6.798;2023-07-09T01:23:33;8.07;;;6.20;;
9388;SDS011;4734;52.778;6.798;2023-07-09T01:26:20;8.40;;;6.10;;
9388;SDS011;4734;52.778;6.798;2023-07-09T01:29:08;7.97;;;5.88;;
9388;SDS011;4734;52.778;6.798;2023-07-09T01:31:54;6.32;;;5.82;;
9388;SDS011;4734;52.778;6.798;2023-07-09T01:34:40;6.57;;;5.82;;
9388;SDS011;4734;52.778;6.798;2023-07-09T01:37:26;7.25;;;6.43;;
9388;SDS011;4734;52.778;6.798;2023-07-09T01:40:16;7.80;;;5.97;;
9388;SDS011;4734;52.778;6.798;2023-07-09T01:43:03;8.32;;;5.80;;
9388;SDS011;4734;52.778;6.798;2023-07-09T01:45:51;6.25;;;5.65;;
9388;SDS011;4734;52.778;6.798;2023-07-09T01:48:36;6.53;;;5.88;;
9388;SDS011;4734;52.778;6.798;2023-07-09T01:51:24;7.93;;;5.88;;
9388;SDS011;4734;52.778;6.798;2023-07-09T01:54:11;7.60;;;6.80;;
9388;SDS011;4734;52.778;6.798;2023-07-09T01:57:11;6.72;;;6.13;;
9388;SDS011;4734;52.778;6.798;2023-07-09T01:59:59;6.43;;;5.82;;
9388;SDS011;4734;52.778;6.798;2023-07-09T02:02:47;6.68;;;6.18;;
9388;SDS011;4734;52.778;6.798;2023-07-09T02:05:34;8.23;;;6.07;;
9388;SDS011;4734;52.778;6.798;2023-07-09T02:08:20;7.40;;;5.85;;
9388;SDS011;4734;52.778;6.798;2023-07-09T02:11:06;6.93;;;6.22;;
9388;SDS011;4734;52.778;6.798;2023-07-09T02:13:53;8.13;;;5.93;;
9388;SDS011;4734;52.778;6.798;2023-07-09T02:16:38;7.20;;;6.60;;
9388;SDS011;4734;52.778;6.798;2023-07-09T02:19:24;6.15;;;5.50;;
9388;SDS011;4734;52.778;6.798;2023-07-09T02:22:10;6.57;;;5.97;;
9388;SDS011;4734;52.778;6.798;2023-07-09T02:24:56;6.13;;;5.63;;
9388;SDS011;4734;52.778;6.798;2023-07-09T02:27:42;6.95;;;6.07;;
9388;SDS011;4734;52.778;6.798;2023-07-09T02:30:29;8.13;;;6.00;;
9388;SDS011;4734;52.778;6.798;2023-07-09T02:33:14;7.32;;;6.45;;
9388;SDS011;4734;52.778;6.798;2023-07-09T02:36:00;8.65;;;6.40;;
9388;SDS011;4734;52.778;6.798;2023-07-09T02:38:45;7.30;;;6.20;;
9388;SDS011;4734;52.778;6.798;2023-07-09T02:41:31;8.13;;;6.20;;
9388;SDS011;4734;52.778;6.798;2023-07-09T02:44:17;6.32;;;5.72;;
9388;SDS011;4734;52.778;6.798;2023-07-09T02:47:04;6.55;;;6.05;;
9388;SDS011;4734;52.778;6.798;2023-07-09T02:49:50;6.40;;;5.88;;
9388;SDS011;4734;52.778;6.798;2023-07-09T02:52:35;6.65;;;6.05;;
9388;SDS011;4734;52.778;6.798;2023-07-09T02:55:21;8.80;;;5.57;;
9388;SDS011;4734;52.778;6.798;2023-07-09T02:58:07;7.40;;;6.35;;
9388;SDS011;4734;52.778;6.798;2023-07-09T03:00:52;8.65;;;5.95;;
9388;SDS011;4734;52.778;6.798;2023-07-09T03:03:39;5.95;;;5.38;;
9388;SDS011;4734;52.778;6.798;2023-07-09T03:06:25;6.53;;;5.93;;
9388;SDS011;4734;52.778;6.798;2023-07-09T03:09:11;7.70;;;5.95;;
9388;SDS011;4734;52.778;6.798;2023-07-09T03:11:57;7.70;;;5.90;;
9388;SDS011;4734;52.778;6.798;2023-07-09T03:14:42;8.15;;;6.70;;
9388;SDS011;4734;52.778;6.798;2023-07-09T03:17:28;7.03;;;6.43;;
9388;SDS011;4734;52.778;6.798;2023-07-09T03:20:15;8.90;;;6.53;;
9388;SDS011;4734;52.778;6.798;2023-07-09T03:23:01;6.88;;;6.03;;
9388;SDS011;4734;52.778;6.798;2023-07-09T03:25:48;8.43;;;6.13;;
9388;SDS011;4734;52.778;6.798;2023-07-09T03:28:33;7.25;;;6.53;;
9388;SDS011;4734;52.778;6.798;2023-07-09T03:31:19;7.78;;;6.47;;
9388;SDS011;4734;52.778;6.798;2023-07-09T03:34:05;6.88;;;6.13;;
9388;SDS011;4734;52.778;6.798;2023-07-09T03:36:52;7.78;;;6.43;;
9388;SDS011;4734;52.778;6.798;2023-07-09T03:39:38;6.93;;;6.20;;
9388;SDS011;4734;52.778;6.798;2023-07-09T03:42:23;7.70;;;6.90;;
9388;SDS011;4734;52.778;6.798;2023-07-09T03:45:09;7.25;;;6.60;;
9388;SDS011;4734;52.778;6.798;2023-07-09T03:47:55;7.65;;;6.43;;
9388;SDS011;4734;52.778;6.798;2023-07-09T03:50:41;7.13;;;6.30;;
9388;SDS011;4734;52.778;6.798;2023-07-09T03:53:29;7.25;;;6.22;;
9388;SDS011;4734;52.778;6.798;2023-07-09T03:56:14;8.02;;;6.85;;
9388;SDS011;4734;52.778;6.798;2023-07-09T03:59:00;6.93;;;6.22;;
9388;SDS011;4734;52.778;6.798;2023-07-09T04:01:46;6.93;;;6.20;;
9388;SDS011;4734;52.778;6.798;2023-07-09T04:04:32;7.20;;;6.60;;
9388;SDS011;4734;52.778;6.798;2023-07-09T04:07:17;7.18;;;6.47;;
9388;SDS011;4734;52.778;6.798;2023-07-09T04:10:05;6.72;;;6.03;;
9388;SDS011;4734;52.778;6.798;2023-07-09T04:12:51;7.15;;;6.47;;
9388;SDS011;4734;52.778;6.798;2023-07-09T04:15:37;6.68;;;5.93;;
9388;SDS011;4734;52.778;6.798;2023-07-09T04:18:23;8.00;;;6.30;;
9388;SDS011;4734;52.778;6.798;2023-07-09T04:21:09;9.40;;;7.00;;
9388;SDS011;4734;52.778;6.798;2023-07-09T04:23:54;7.38;;;6.65;;
9388;SDS011;4734;52.778;6.798;2023-07-09T04:26:41;7.75;;;6.82;;
9388;SDS011;4734;52.778;6.798;2023-07-09T04:29:27;7.82;;;7.00;;
9388;SDS011;4734;52.778;6.798;2023-07-09T04:32:13;7.68;;;6.63;;
9388;SDS011;4734;52.778;6.798;2023-07-09T04:34:59;8.60;;;7.05;;
9388;SDS011;4734;52.778;6.798;2023-07-09T04:37:45;9.73;;;7.15;;
9388;SDS011;4734;52.778;6.798;2023-07-09T04:40:30;7.38;;;6.68;;
9388;SDS011;4734;52.778;6.798;2023-07-09T04:43:17;8.95;;;6.53;;
9388;SDS011;4734;52.778;6.798;2023-07-09T04:46:03;9.00;;;7.25;;
9388;SDS011;4734;52.778;6.798;2023-07-09T04:48:48;8.32;;;6.50;;
9388;SDS011;4734;52.778;6.798;2023-07-09T04:51:34;7.43;;;6.55;;
9388;SDS011;4734;52.778;6.798;2023-07-09T04:54:20;8.30;;;6.53;;
9388;SDS011;4734;52.778;6.798;2023-07-09T04:57:06;8.05;;;7.05;;
9388;SDS011;4734;52.778;6.798;2023-07-09T04:59:53;8.07;;;6.47;;
9388;SDS011;4734;52.778;6.798;2023-07-09T05:02:38;10.13;;;6.72;;
9388;SDS011;4734;52.778;6.798;2023-07-09T05:05:24;7.43;;;6.70;;
9388;SDS011;4734;52.778;6.798;2023-07-09T05:08:11;7.57;;;6.80;;
9388;SDS011;4734;52.778;6.798;2023-07-09T05:10:57;7.60;;;6.90;;
9388;SDS011;4734;52.778;6.798;2023-07-09T05:13:42;6.93;;;6.32;;
9388;SDS011;4734;52.778;6.798;2023-07-09T05:16:30;8.48;;;7.18;;
9388;SDS011;4734;52.778;6.798;2023-07-09T05:19:15;7.80;;;7.00;;
9388;SDS011;4734;52.778;6.798;2023-07-09T05:22:01;9.20;;;7.25;;
9388;SDS011;4734;52.778;6.798;2023-07-09T05:24:46;7.72;;;7.00;;
9388;SDS011;4734;52.778;6.798;2023-07-09T05:27:32;8.57;;;7.05;;
9388;SDS011;4734;52.778;6.798;2023-07-09T05:30:18;8.00;;;6.85;;
9388;SDS011;4734;52.778;6.798;2023-07-09T05:33:05;9.68;;;7.93;;
9388;SDS011;4734;52.778;6.798;2023-07-09T05:35:51;9.13;;;7.43;;
9388;SDS011;4734;52.778;6.798;2023-07-09T05:38:36;8.68;;;7.82;;
9388;SDS011;4734;52.778;6.798;2023-07-09T05:41:22;8.27;;;7.47;;
9388;SDS011;4734;52.778;6.798;2023-07-09T05:44:08;8.75;;;7.88;;
9388;SDS011;4734;52.778;6.798;2023-07-09T05:46:54;10.65;;;8.18;;
9388;SDS011;4734;52.778;6.798;2023-07-09T05:49:41;9.23;;;7.75;;
9388;SDS011;4734;52.778;6.798;2023-07-09T05:52:27;9.05;;;8.15;;
9388;SDS011;4734;52.778;6.798;2023-07-09T05:55:13;8.90;;;8.00;;
9388;SDS011;4734;52.778;6.798;2023-07-09T05:57:59;8.50;;;7.57;;
9388;SDS011;4734;52.778;6.798;2023-07-09T06:00:45;11.25;;;7.32;;
9388;SDS011;4734;52.778;6.798;2023-07-09T06:03:30;8.63;;;7.82;;
9388;SDS011;4734;52.778;6.798;2023-07-09T06:06:18;11.43;;;7.45;;
9388;SDS011;4734;52.778;6.798;2023-07-09T06:09:03;10.60;;;8.18;;
9388;SDS011;4734;52.778;6.798;2023-07-09T06:11:49;9.45;;;8.25;;
9388;SDS011;4734;52.778;6.798;2023-07-09T06:14:36;8.57;;;7.78;;
9388;SDS011;4734;52.778;6.798;2023-07-09T06:17:22;8.73;;;7.40;;
9388;SDS011;4734;52.778;6.798;2023-07-09T06:20:08;9.75;;;7.97;;
9388;SDS011;4734;52.778;6.798;2023-07-09T06:22:55;9.55;;;7.90;;
9388;SDS011;4734;52.778;6.798;2023-07-09T06:25:41;9.23;;;7.45;;
9388;SDS011;4734;52.778;6.798;2023-07-09T06:28:30;8.68;;;7.82;;
9388;SDS011;4734;52.778;6.798;2023-07-09T06:31:16;9.45;;;8.27;;
9388;SDS011;4734;52.778;6.798;2023-07-09T06:34:02;9.73;;;7.60;;
9388;SDS011;4734;52.778;6.798;2023-07-09T06:36:48;9.45;;;7.43;;
9388;SDS011;4734;52.778;6.798;2023-07-09T06:39:35;9.10;;;8.10;;
9388;SDS011;4734;52.778;6.798;2023-07-09T06:42:20;10.65;;;7.38;;
9388;SDS011;4734;52.778;6.798;2023-07-09T06:45:06;9.80;;;7.22;;
9388;SDS011;4734;52.778;6.798;2023-07-09T06:47:51;8.25;;;7.30;;
9388;SDS011;4734;52.778;6.798;2023-07-09T06:50:37;8.73;;;7.93;;
9388;SDS011;4734;52.778;6.798;2023-07-09T06:53:23;8.32;;;7.53;;
9388;SDS011;4734;52.778;6.798;2023-07-09T06:56:10;7.85;;;7.15;;
9388;SDS011;4734;52.778;6.798;2023-07-09T06:58:56;10.88;;;7.82;;
9388;SDS011;4734;52.778;6.798;2023-07-09T07:01:41;8.90;;;7.38;;
9388;SDS011;4734;52.778;6.798;2023-07-09T07:04:27;9.20;;;7.65;;
9388;SDS011;4734;52.778;6.798;2023-07-09T07:07:13;8.65;;;7.85;;
9388;SDS011;4734;52.778;6.798;2023-07-09T07:09:58;8.05;;;7.25;;
9388;SDS011;4734;52.778;6.798;2023-07-09T07:12:46;9.68;;;7.68;;
9388;SDS011;4734;52.778;6.798;2023-07-09T07:15:32;9.18;;;7.70;;
9388;SDS011;4734;52.778;6.798;2023-07-09T07:18:18;9.27;;;7.35;;
9388;SDS011;4734;52.778;6.798;2023-07-09T07:21:04;8.80;;;7.70;;
9388;SDS011;4734;52.778;6.798;2023-07-09T07:23:50;9.52;;;7.00;;
9388;SDS011;4734;52.778;6.798;2023-07-09T07:26:36;8.52;;;7.63;;
9388;SDS011;4734;52.778;6.798;2023-07-09T07:29:23;10.75;;;7.75;;
9388;SDS011;4734;52.778;6.798;2023-07-09T07:32:08;7.90;;;7.20;;
9388;SDS011;4734;52.778;6.798;2023-07-09T07:34:54;9.90;;;7.53;;
9388;SDS011;4734;52.778;6.798;2023-07-09T07:37:40;8.25;;;7.20;;
9388;SDS011;4734;52.778;6.798;2023-07-09T07:40:25;7.93;;;6.57;;
9388;SDS011;4734;52.778;6.798;2023-07-09T07:43:11;7.57;;;6.78;;
9388;SDS011;4734;52.778;6.798;2023-07-09T07:45:58;8.13;;;7.13;;
9388;SDS011;4734;52.778;6.798;2023-07-09T07:48:43;7.65;;;6.95;;
9388;SDS011;4734;52.778;6.798;2023-07-09T07:51:29;8.10;;;7.18;;
9388;SDS011;4734;52.778;6.798;2023-07-09T07:54:14;10.90;;;7.32;;
9388;SDS011;4734;52.778;6.798;2023-07-09T07:57:02;8.05;;;6.57;;
9388;SDS011;4734;52.778;6.798;2023-07-09T07:59:48;9.48;;;7.40;;
9388;SDS011;4734;52.778;6.798;2023-07-09T08:02:35;7.30;;;6.60;;
9388;SDS011;4734;52.778;6.798;2023-07-09T08:05:20;14.32;;;6.80;;
9388;SDS011;4734;52.778;6.798;2023-07-09T08:08:07;7.43;;;6.78;;
9388;SDS011;4734;52.778;6.798;2023-07-09T08:10:59;11.32;;;6.90;;
9388;SDS011;4734;52.778;6.798;2023-07-09T08:13:48;8.50;;;6.82;;
9388;SDS011;4734;52.778;6.798;2023-07-09T08:16:34;8.35;;;7.30;;
9388;SDS011;4734;52.778;6.798;2023-07-09T08:19:21;8.57;;;6.88;;
9388;SDS011;4734;52.778;6.798;2023-07-09T08:22:06;8.13;;;7.05;;
9388;SDS011;4734;52.778;6.798;2023-07-09T08:24:52;8.25;;;7.13;;
9388;SDS011;4734;52.778;6.798;2023-07-09T08:27:37;7.45;;;6.75;;
9388;SDS011;4734;52.778;6.798;2023-07-09T08:30:23;7.72;;;6.55;;
9388;SDS011;4734;52.778;6.798;2023-07-09T08:33:08;9.77;;;6.78;;
9388;SDS011;4734;52.778;6.798;2023-07-09T08:35:55;10.60;;;7.40;;
9388;SDS011;4734;52.778;6.798;2023-07-09T08:38:41;8.32;;;6.40;;
9388;SDS011;4734;52.778;6.798;2023-07-09T08:41:32;6.97;;;6.20;;
9388;SDS011;4734;52.778;6.798;2023-07-09T08:44:37;8.25;;;6.72;;
9388;SDS011;4734;52.778;6.798;2023-07-09T08:47:42;9.35;;;6.40;;
9388;SDS011;4734;52.778;6.798;2023-07-09T08:50:38;8.55;;;6.40;;
9388;SDS011;4734;52.778;6.798;2023-07-09T08:53:29;10.45;;;6.57;;
9388;SDS011;4734;52.778;6.798;2023-07-09T08:56:18;8.75;;;6.53;;
9388;SDS011;4734;52.778;6.798;2023-07-09T08:59:05;6.75;;;5.88;;
9388;SDS011;4734;52.778;6.798;2023-07-09T09:01:54;7.93;;;5.60;;
9388;SDS011;4734;52.778;6.798;2023-07-09T09:04:43;7.28;;;6.13;;
9388;SDS011;4734;52.778;6.798;2023-07-09T09:07:33;6.65;;;6.05;;
9388;SDS011;4734;52.778;6.798;2023-07-09T09:10:29;6.65;;;5.80;;
9388;SDS011;4734;52.778;6.798;2023-07-09T09:13:25;6.07;;;5.47;;
9388;SDS011;4734;52.778;6.798;2023-07-09T09:16:18;5.45;;;4.95;;
9388;SDS011;4734;52.778;6.798;2023-07-09T09:19:14;7.05;;;5.50;;
9388;SDS011;4734;52.778;6.798;2023-07-09T09:22:05;6.57;;;5.60;;
9388;SDS011;4734;52.778;6.798;2023-07-09T09:24:55;6.63;;;5.75;;
9388;SDS011;4734;52.778;6.798;2023-07-09T09:27:47;6.07;;;4.97;;
9388;SDS011;4734;52.778;6.798;2023-07-09T09:30:33;6.25;;;5.32;;
9388;SDS011;4734;52.778;6.798;2023-07-09T09:33:18;6.93;;;5.50;;
9388;SDS011;4734;52.778;6.798;2023-07-09T09:36:04;5.70;;;4.97;;
9388;SDS011;4734;52.778;6.798;2023-07-09T09:38:50;5.50;;;5.00;;
9388;SDS011;4734;52.778;6.798;2023-07-09T09:41:37;7.47;;;5.72;;
9388;SDS011;4734;52.778;6.798;2023-07-09T09:44:26;6.53;;;5.10;;
9388;SDS011;4734;52.778;6.798;2023-07-09T09:47:12;5.72;;;5.22;;
9388;SDS011;4734;52.778;6.798;2023-07-09T09:49:58;6.47;;;5.20;;
9388;SDS011;4734;52.778;6.798;2023-07-09T09:52:44;7.32;;;5.22;;
9388;SDS011;4734;52.778;6.798;2023-07-09T09:55:31;5.70;;;5.10;;
9388;SDS011;4734;52.778;6.798;2023-07-09T09:58:18;6.22;;;5.50;;
9388;SDS011;4734;52.778;6.798;2023-07-09T10:01:05;6.07;;;5.28;;
9388;SDS011;4734;52.778;6.798;2023-07-09T10:03:51;5.93;;;5.00;;
9388;SDS011;4734;52.778;6.798;2023-07-09T10:06:40;5.70;;;4.68;;
9388;SDS011;4734;52.778;6.798;2023-07-09T10:09:31;5.15;;;4.65;;
9388;SDS011;4734;52.778;6.798;2023-07-09T10:12:32;6.07;;;4.72;;
9388;SDS011;4734;52.778;6.798;2023-07-09T10:15:26;6.63;;;4.85;;
9388;SDS011;4734;52.778;6.798;2023-07-09T10:18:24;5.57;;;4.97;;
9388;SDS011;4734;52.778;6.798;2023-07-09T10:21:18;5.20;;;4.65;;
9388;SDS011;4734;52.778;6.798;2023-07-09T10:24:12;5.22;;;4.72;;
9388;SDS011;4734;52.778;6.798;2023-07-09T10:27:11;8.10;;;5.25;;
9388;SDS011;4734;52.778;6.798;2023-07-09T10:30:03;6.28;;;5.00;;
9388;SDS011;4734;52.778;6.798;2023-07-09T10:33:04;5.63;;;4.63;;
9388;SDS011;4734;52.778;6.798;2023-07-09T10:35:56;6.53;;;5.18;;
9388;SDS011;4734;52.778;6.798;2023-07-09T10:38:48;5.25;;;4.55;;
9388;SDS011;4734;52.778;6.798;2023-07-09T10:41:39;5.25;;;4.20;;
9388;SDS011;4734;52.778;6.798;2023-07-09T10:44:28;5.63;;;4.80;;
9388;SDS011;4734;52.778;6.798;2023-07-09T10:47:21;5.95;;;4.82;;
9388;SDS011;4734;52.778;6.798;2023-07-09T10:50:14;5.50;;;4.78;;
9388;SDS011;4734;52.778;6.798;2023-07-09T10:53:05;5.88;;;4.53;;
9388;SDS011;4734;52.778;6.798;2023-07-09T10:55:58;6.78;;;4.82;;
9388;SDS011;4734;52.778;6.798;2023-07-09T10:58:47;6.43;;;4.75;;
9388;SDS011;4734;52.778;6.798;2023-07-09T11:01:39;6.78;;;4.78;;
9388;SDS011;4734;52.778;6.798;2023-07-09T11:04:29;5.18;;;4.40;;
9388;SDS011;4734;52.778;6.798;2023-07-09T11:07:19;6.72;;;4.05;;
9388;SDS011;4734;52.778;6.798;2023-07-09T11:10:13;7.68;;;4.57;;
9388;SDS011;4734;52.778;6.798;2023-07-09T11:13:09;5.00;;;4.60;;
9388;SDS011;4734;52.778;6.798;2023-07-09T11:15:57;4.40;;;4.00;;
9388;SDS011;4734;52.778;6.798;2023-07-09T11:18:52;4.63;;;4.22;;
9388;SDS011;4734;52.778;6.798;2023-07-09T11:21:40;4.57;;;3.72;;
9388;SDS011;4734;52.778;6.798;2023-07-09T11:24:44;6.05;;;3.90;;
9388;SDS011;4734;52.778;6.798;2023-07-09T11:27:33;5.65;;;4.13;;
9388;SDS011;4734;52.778;6.798;2023-07-09T11:30:29;4.32;;;3.92;;
9388;SDS011;4734;52.778;6.798;2023-07-09T11:33:16;4.65;;;4.22;;
9388;SDS011;4734;52.778;6.798;2023-07-09T11:36:06;4.85;;;4.38;;
9388;SDS011;4734;52.778;6.798;2023-07-09T11:38:54;4.72;;;4.32;;
9388;SDS011;4734;52.778;6.798;2023-07-09T11:41:40;6.85;;;4.20;;
9388;SDS011;4734;52.778;6.798;2023-07-09T11:44:31;5.53;;;4.28;;
9388;SDS011;4734;52.778;6.798;2023-07-09T11:47:19;5.28;;;4.18;;
9388;SDS011;4734;52.778;6.798;2023-07-09T11:50:12;4.40;;;4.00;;
9388;SDS011;4734;52.778;6.798;2023-07-09T11:53:05;4.65;;;4.25;;
9388;SDS011;4734;52.778;6.798;2023-07-09T11:56:07;4.85;;;3.90;;
9388;SDS011;4734;52.778;6.798;2023-07-09T11:58:55;3.67;;;3.38;;
9388;SDS011;4734;52.778;6.798;2023-07-09T12:01:43;4.90;;;4.05;;
9388;SDS011;4734;52.778;6.798;2023-07-09T12:04:32;4.15;;;3.83;;
9388;SDS011;4734;52.778;6.798;2023-07-09T12:07:20;4.70;;;3.45;;
9388;SDS011;4734;52.778;6.798;2023-07-09T12:10:15;5.35;;;3.92;;
9388;SDS011;4734;52.778;6.798;2023-07-09T12:13:04;4.22;;;3.80;;
9388;SDS011;4734;52.778;6.798;2023-07-09T12:15:50;4.45;;;4.05;;
9388;SDS011;4734;52.778;6.798;2023-07-09T12:18:37;4.18;;;3.80;;
9388;SDS011;4734;52.778;6.798;2023-07-09T12:21:24;4.13;;;3.25;;
9388;SDS011;4734;52.778;6.798;2023-07-09T12:24:15;4.38;;;4.00;;
9388;SDS011;4734;52.778;6.798;2023-07-09T12:27:14;6.05;;;3.80;;
9388;SDS011;4734;52.778;6.798;2023-07-09T12:30:09;4.78;;;3.47;;
9388;SDS011;4734;52.778;6.798;2023-07-09T12:32:57;4.20;;;3.83;;
9388;SDS011;4734;52.778;6.798;2023-07-09T12:35:43;4.03;;;3.63;;
9388;SDS011;4734;52.778;6.798;2023-07-09T12:38:32;6.72;;;3.60;;
9388;SDS011;4734;52.778;6.798;2023-07-09T12:41:26;5.57;;;3.65;;
9388;SDS011;4734;52.778;6.798;2023-07-09T12:44:15;3.55;;;3.20;;
9388;SDS011;4734;52.778;6.798;2023-07-09T12:47:02;3.95;;;3.60;;
9388;SDS011;4734;52.778;6.798;2023-07-09T12:49:49;4.05;;;3.75;;
9388;SDS011;4734;52.778;6.798;2023-07-09T12:52:38;4.47;;;3.40;;
9388;SDS011;4734;52.778;6.798;2023-07-09T12:55:35;4.05;;;3.67;;
9388;SDS011;4734;52.778;6.798;2023-07-09T12:58:24;6.93;;;3.50;;
9388;SDS011;4734;52.778;6.798;2023-07-09T13:01:14;4.82;;;3.63;;
9388;SDS011;4734;52.778;6.798;2023-07-09T13:04:01;3.75;;;3.35;;
9388;SDS011;4734;52.778;6.798;2023-07-09T13:06:47;3.72;;;3.42;;
9388;SDS011;4734;52.778;6.798;2023-07-09T13:09:35;4.13;;;3.72;;
9388;SDS011;4734;52.778;6.798;2023-07-09T13:12:20;5.15;;;3.80;;
9388;SDS011;4734;52.778;6.798;2023-07-09T13:15:19;3.78;;;3.33;;
9388;SDS011;4734;52.778;6.798;2023-07-09T13:18:09;4.03;;;3.65;;
9388;SDS011;4734;52.778;6.798;2023-07-09T13:20:56;3.45;;;3.15;;
9388;SDS011;4734;52.778;6.798;2023-07-09T13:23:42;6.93;;;2.95;;
9388;SDS011;4734;52.778;6.798;2023-07-09T13:26:30;8.07;;;3.13;;
9388;SDS011;4734;52.778;6.798;2023-07-09T13:29:17;4.53;;;3.25;;
9388;SDS011;4734;52.778;6.798;2023-07-09T13:32:07;5.03;;;3.15;;
9388;SDS011;4734;52.778;6.798;2023-07-09T13:34:54;3.47;;;2.92;;
9388;SDS011;4734;52.778;6.798;2023-07-09T13:37:39;4.43;;;3.70;;
9388;SDS011;4734;52.778;6.798;2023-07-09T13:40:25;4.05;;;3.47;;
9388;SDS011;4734;52.778;6.798;2023-07-09T13:43:13;4.50;;;3.30;;
9388;SDS011;4734;52.778;6.798;2023-07-09T13:46:01;3.40;;;3.20;;
9388;SDS011;4734;52.778;6.798;2023-07-09T13:48:49;3.55;;;3.20;;
9388;SDS011;4734;52.778;6.798;2023-07-09T13:51:34;3.60;;;3.30;;
9388;SDS011;4734;52.778;6.798;2023-07-09T13:54:22;4.90;;;3.22;;
9388;SDS011;4734;52.778;6.798;2023-07-09T13:57:11;4.63;;;3.25;;
9388;SDS011;4734;52.778;6.798;2023-07-09T14:00:00;3.85;;;3.40;;
9388;SDS011;4734;52.778;6.798;2023-07-09T14:02:49;3.65;;;3.35;;
9388;SDS011;4734;52.778;6.798;2023-07-09T14:05:36;3.53;;;3.20;;
9388;SDS011;4734;52.778;6.798;2023-07-09T14:08:21;3.40;;;3.10;;
9388;SDS011;4734;52.778;6.798;2023-07-09T14:11:09;4.22;;;3.63;;
9388;SDS011;4734;52.778;6.798;2023-07-09T14:13:56;3.40;;;3.15;;
9388;SDS011;4734;52.778;6.798;2023-07-09T14:16:43;6.53;;;3.55;;
9388;SDS011;4734;52.778;6.798;2023-07-09T14:19:28;5.35;;;3.83;;
9388;SDS011;4734;52.778;6.798;2023-07-09T14:22:21;4.10;;;3.40;;
9388;SDS011;4734;52.778;6.798;2023-07-09T14:25:14;3.83;;;3.42;;
9388;SDS011;4734;52.778;6.798;2023-07-09T14:28:04;6.05;;;3.50;;
9388;SDS011;4734;52.778;6.798;2023-07-09T14:30:53;6.38;;;3.50;;
9388;SDS011;4734;52.778;6.798;2023-07-09T14:33:41;4.78;;;3.50;;
9388;SDS011;4734;52.778;6.798;2023-07-09T14:36:27;3.63;;;3.25;;
9388;SDS011;4734;52.778;6.798;2023-07-09T14:39:12;5.95;;;3.78;;
9388;SDS011;4734;52.778;6.798;2023-07-09T14:41:58;6.65;;;4.03;;
9388;SDS011;4734;52.778;6.798;2023-07-09T14:44:44;5.93;;;3.28;;
9388;SDS011;4734;52.778;6.798;2023-07-09T14:47:29;3.55;;;3.25;;
9388;SDS011;4734;52.778;6.798;2023-07-09T14:50:17;4.00;;;3.03;;
9388;SDS011;4734;52.778;6.798;2023-07-09T14:53:03;4.18;;;3.20;;
9388;SDS011;4734;52.778;6.798;2023-07-09T14:55:51;6.60;;;3.25;;
9388;SDS011;4734;52.778;6.798;2023-07-09T14:58:37;4.45;;;3.30;;
9388;SDS011;4734;52.778;6.798;2023-07-09T15:01:23;3.83;;;3.45;;
9388;SDS011;4734;52.778;6.798;2023-07-09T15:04:19;3.30;;;3.00;;
9388;SDS011;4734;52.778;6.798;2023-07-09T15:07:12;4.28;;;3.33;;
9388;SDS011;4734;52.778;6.798;2023-07-09T15:09:59;4.07;;;3.67;;
9388;SDS011;4734;52.778;6.798;2023-07-09T15:12:48;3.85;;;3.40;;
9388;SDS011;4734;52.778;6.798;2023-07-09T15:15:34;3.83;;;3.42;;
9388;SDS011;4734;52.778;6.798;2023-07-09T15:18:20;5.13;;;3.30;;
9388;SDS011;4734;52.778;6.798;2023-07-09T15:21:05;5.72;;;3.90;;
9388;SDS011;4734;52.778;6.798;2023-07-09T15:23:52;6.10;;;4.13;;
9388;SDS011;4734;52.778;6.798;2023-07-09T15:26:37;7.97;;;3.58;;
9388;SDS011;4734;52.778;6.798;2023-07-09T15:29:23;8.05;;;4.35;;
9388;SDS011;4734;52.778;6.798;2023-07-09T15:32:09;6.22;;;4.20;;
9388;SDS011;4734;52.778;6.798;2023-07-09T15:34:55;8.43;;;4.28;;
9388;SDS011;4734;52.778;6.798;2023-07-09T15:37:40;5.15;;;4.10;;
9388;SDS011;4734;52.778;6.798;2023-07-09T15:40:28;5.68;;;3.90;;
9388;SDS011;4734;52.778;6.798;2023-07-09T15:43:14;6.88;;;4.15;;
9388;SDS011;4734;52.778;6.798;2023-07-09T15:45:59;5.30;;;4.38;;
9388;SDS011;4734;52.778;6.798;2023-07-09T15:48:46;7.00;;;5.13;;
9388;SDS011;4734;52.778;6.798;2023-07-09T15:51:32;10.73;;;4.70;;
9388;SDS011;4734;52.778;6.798;2023-07-09T15:54:18;7.95;;;4.68;;
9388;SDS011;4734;52.778;6.798;2023-07-09T15:57:08;8.52;;;5.00;;
9388;SDS011;4734;52.778;6.798;2023-07-09T15:59:57;6.07;;;4.93;;
9388;SDS011;4734;52.778;6.798;2023-07-09T16:02:43;9.23;;;4.88;;
9388;SDS011;4734;52.778;6.798;2023-07-09T16:05:29;7.63;;;4.43;;
9388;SDS011;4734;52.778;6.798;2023-07-09T16:08:16;5.53;;;4.18;;
9388;SDS011;4734;52.778;6.798;2023-07-09T16:11:03;6.55;;;4.55;;
9388;SDS011;4734;52.778;6.798;2023-07-09T16:13:55;6.45;;;4.32;;
9388;SDS011;4734;52.778;6.798;2023-07-09T16:16:40;6.75;;;4.40;;
9388;SDS011;4734;52.778;6.798;2023-07-09T16:19:27;6.53;;;4.45;;
9388;SDS011;4734;52.778;6.798;2023-07-09T16:22:14;13.98;;;4.80;;
9388;SDS011;4734;52.778;6.798;2023-07-09T16:25:00;7.60;;;4.05;;
9388;SDS011;4734;52.778;6.798;2023-07-09T16:27:46;10.43;;;5.72;;
9388;SDS011;4734;52.778;6.798;2023-07-09T16:30:34;9.00;;;5.32;;
9388;SDS011;4734;52.778;6.798;2023-07-09T16:33:20;11.93;;;5.25;;
9388;SDS011;4734;52.778;6.798;2023-07-09T16:36:09;6.35;;;4.72;;
9388;SDS011;4734;52.778;6.798;2023-07-09T16:38:56;7.28;;;5.40;;
9388;SDS011;4734;52.778;6.798;2023-07-09T16:41:42;13.70;;;6.00;;
9388;SDS011;4734;52.778;6.798;2023-07-09T16:44:27;5.03;;;3.55;;
9388;SDS011;4734;52.778;6.798;2023-07-09T16:47:15;9.68;;;4.95;;
9388;SDS011;4734;52.778;6.798;2023-07-09T16:50:02;9.30;;;4.88;;
9388;SDS011;4734;52.778;6.798;2023-07-09T16:52:48;5.25;;;4.57;;
9388;SDS011;4734;52.778;6.798;2023-07-09T16:55:35;5.75;;;4.53;;
9388;SDS011;4734;52.778;6.798;2023-07-09T16:58:25;5.60;;;4.50;;
9388;SDS011;4734;52.778;6.798;2023-07-09T17:01:15;5.50;;;4.13;;
9388;SDS011;4734;52.778;6.798;2023-07-09T17:04:07;4.00;;;3.10;;
9388;SDS011;4734;52.778;6.798;2023-07-09T17:07:04;5.13;;;3.33;;
9388;SDS011;4734;52.778;6.798;2023-07-09T17:09:51;3.20;;;2.60;;
9388;SDS011;4734;52.778;6.798;2023-07-09T17:12:37;5.03;;;3.13;;
9388;SDS011;4734;52.778;6.798;2023-07-09T17:15:23;6.88;;;3.58;;
9388;SDS011;4734;52.778;6.798;2023-07-09T17:18:14;3.85;;;3.38;;
9388;SDS011;4734;52.778;6.798;2023-07-09T17:21:06;4.05;;;3.47;;
9388;SDS011;4734;52.778;6.798;2023-07-09T17:23:52;9.32;;;4.40;;
9388;SDS011;4734;52.778;6.798;2023-07-09T17:26:38;6.53;;;4.22;;